Westford, Pennsylvania
Current Conditions -  °F | °C
As of 4:22 AM on Thursday 27 Nov 2014 (Local Time) from KGKJ Reporting Station
Overcast Overcast  
Wind Chill: 26°   Ceiling: 2300
Heat Index: 31°   Visibility: 8mi
Dew Point: 28°   Wind: 5mph
Humidity: 89%   Direction: 340°NNW
Pressure: 29.96"   Gusts: NA
Location:  41.5078°N, 80.4555°W
Report Text: KGKJ 270922Z AUTO 34004KT 8SM FEW006 BKN023 OVC034 M01/M02 A2996 RMK AO2 T10061022 TSNO
Loading
Personal Weather Stations






























Interactive Weather Map New forecast layout! Learn more

10-Day Weather Forecast

Advertisements
Track Severe Weather on mobile